Time;durP1;ratioP1;P1;durP2;ratioP2;P2;SDS_P1;SDS_P2;PMS_P1;PMS_P2;Temp;Humidity;BMP_temperature;BMP_pressure;BME280_temperature;BME280_humidity;BME280_pressure;Samples;Min_cycle;Max_cycle;Signal;HPM_P1;HPM_P2
2022/11/10 00:02:16;;;;;;;1.90;1.30;;;16.10;50.40;;;;;;5008400;28;20216;-69
2022/11/10 00:04:41;;;;;;;1.93;1.37;;;15.80;51.70;;;;;;5009597;28;20716;-69
2022/11/10 00:07:07;;;;;;;1.90;1.20;;;15.60;53.50;;;;;;5010055;28;20204;-69
2022/11/10 00:09:32;;;;;;;1.90;1.33;;;15.70;52.60;;;;;;5011196;28;20234;-69
2022/11/10 00:11:58;;;;;;;1.90;1.30;;;15.70;53.90;;;;;;5009587;28;20228;-69
2022/11/10 00:17:09;;;;;;;1.90;1.30;;;15.80;54.00;;;;;;5010310;28;20270;-69
2022/11/10 00:19:35;;;;;;;1.80;1.10;;;15.90;52.80;;;;;;5010295;28;20438;-69
2022/11/10 00:22:01;;;;;;;1.83;1.17;;;15.90;51.80;;;;;;5010425;28;20462;-69
2022/11/10 00:24:27;;;;;;;1.90;1.30;;;16.00;51.30;;;;;;5010430;28;20647;-69
2022/11/10 00:26:54;;;;;;;1.70;1.10;;;15.80;52.60;;;;;;5011168;28;20439;-70
2022/11/10 00:29:20;;;;;;;1.90;1.20;;;15.80;52.30;;;;;;5014407;28;20438;-69
2022/11/10 00:31:45;;;;;;;1.80;1.10;;;15.80;52.80;;;;;;5014483;28;20438;-70
2022/11/10 00:34:14;;;;;;;1.90;1.40;;;16.20;51.80;;;;;;5013048;28;20433;-70
2022/11/10 00:36:40;;;;;;;1.80;1.10;;;15.90;51.30;;;;;;5013404;28;20185;-70
2022/11/10 00:39:06;;;;;;;1.90;1.20;;;16.20;52.40;;;;;;5012723;28;20445;-70
2022/11/10 00:41:32;;;;;;;1.80;1.20;;;15.50;53.10;;;;;;5013837;28;20469;-70
2022/11/10 00:43:57;;;;;;;1.90;1.20;;;15.50;53.70;;;;;;5014786;28;20938;-70
2022/11/10 00:46:23;;;;;;;1.80;1.10;;;15.60;53.20;;;;;;5014257;28;20183;-70
2022/11/10 00:48:49;;;;;;;1.90;1.30;;;15.70;52.80;;;;;;5010138;28;20205;-70
2022/11/10 00:51:23;;;;;;;1.90;1.20;;;15.70;52.50;;;;;;5014231;28;20185;-70
2022/11/10 00:53:49;;;;;;;1.97;1.30;;;15.70;51.80;;;;;;5014419;28;20195;-70
2022/11/10 00:56:15;;;;;;;1.90;1.20;;;15.70;51.80;;;;;;5014119;28;20439;-70
2022/11/10 00:58:41;;;;;;;1.80;1.10;;;15.80;50.80;;;;;;5011316;28;20520;-70
2022/11/10 01:01:07;;;;;;;1.90;1.20;;;15.80;50.80;;;;;;5013028;28;20233;-70
2022/11/10 01:03:33;;;;;;;1.90;1.30;;;15.80;50.70;;;;;;5013685;28;20438;-70
2022/11/10 01:06:07;;;;;;;1.80;1.20;;;15.80;51.30;;;;;;5014194;28;20456;-70
2022/11/10 01:08:33;;;;;;;1.80;1.10;;;15.70;51.90;;;;;;5008156;28;20249;-70
2022/11/10 01:11:03;;;;;;;1.90;1.30;;;15.60;52.40;;;;;;5013625;28;20946;-70
2022/11/10 01:13:29;;;;;;;1.90;1.20;;;15.50;52.40;;;;;;5006382;28;20647;-70
2022/11/10 01:15:55;;;;;;;1.90;1.30;;;15.60;52.70;;;;;;5014345;28;20408;-70
2022/11/10 01:18:21;;;;;;;1.90;1.20;;;15.50;52.30;;;;;;5012669;28;20464;-70
2022/11/10 01:20:50;;;;;;;1.90;1.30;;;15.50;52.70;;;;;;5008676;28;20678;-70
2022/11/10 01:23:16;;;;;;;1.90;1.20;;;15.50;51.90;;;;;;5012236;28;20192;-70
2022/11/10 01:25:42;;;;;;;1.90;1.20;;;15.40;52.50;;;;;;5011462;28;20476;-70
2022/11/10 01:28:08;;;;;;;1.80;1.20;;;15.30;52.10;;;;;;5012883;28;20847;-70
2022/11/10 01:30:33;;;;;;;2.00;1.40;;;15.30;52.50;;;;;;5011525;28;20188;-70
2022/11/10 01:32:59;;;;;;;1.87;1.20;;;15.20;52.30;;;;;;5011452;28;20187;-70
2022/11/10 01:35:24;;;;;;;1.80;1.20;;;15.20;52.30;;;;;;5012454;28;20214;-70
2022/11/10 01:37:53;;;;;;;1.90;1.20;;;15.10;52.40;;;;;;5012439;28;20198;-70
2022/11/10 01:40:19;;;;;;;1.90;1.20;;;15.10;52.10;;;;;;5013152;28;20184;-70
2022/11/10 01:42:51;;;;;;;2.30;1.30;;;15.10;52.10;;;;;;5012267;28;20441;-70
2022/11/10 01:45:22;;;;;;;1.90;1.30;;;15.00;52.40;;;;;;5013429;28;20414;-70
2022/11/10 01:47:50;;;;;;;1.83;1.20;;;15.00;52.10;;;;;;5012777;28;20547;-70
2022/11/10 01:50:17;;;;;;;1.80;1.20;;;14.90;52.30;;;;;;5011736;28;20439;-70
2022/11/10 01:52:47;;;;;;;1.90;1.30;;;14.90;52.70;;;;;;5007015;28;21041;-70
2022/11/10 01:55:13;;;;;;;1.70;1.13;;;15.00;52.70;;;;;;5012869;28;20516;-70
2022/11/10 01:57:40;;;;;;;1.80;1.20;;;15.00;52.40;;;;;;5012888;28;20452;-71
2022/11/10 02:00:07;;;;;;;1.80;1.20;;;15.10;52.00;;;;;;5012769;28;20527;-71
2022/11/10 02:02:49;;;;;;;1.77;1.10;;;15.40;51.30;;;;;;5011706;28;20470;-69
2022/11/10 02:05:15;;;;;;;2.00;1.30;;;15.50;50.50;;;;;;5012771;28;20483;-69
2022/11/10 02:07:44;;;;;;;1.80;1.20;;;15.40;50.40;;;;;;5012399;28;20991;-71
2022/11/10 02:10:15;;;;;;;1.80;1.20;;;15.20;51.50;;;;;;5011041;28;20181;-71
2022/11/10 02:12:41;;;;;;;1.73;1.10;;;15.10;52.00;;;;;;5010865;28;20440;-71
2022/11/10 02:15:11;;;;;;;1.70;1.10;;;15.20;52.20;;;;;;5012536;28;20420;-71
2022/11/10 02:17:37;;;;;;;1.80;1.10;;;15.20;51.30;;;;;;5012127;28;20516;-71
2022/11/10 02:20:10;;;;;;;1.80;1.17;;;15.20;52.20;;;;;;5012428;28;20856;-71
2022/11/10 02:22:36;;;;;;;1.90;1.30;;;15.10;52.00;;;;;;5011520;28;20205;-69
2022/11/10 02:25:03;;;;;;;1.80;1.20;;;15.10;51.90;;;;;;5009583;28;20437;-70
2022/11/10 02:27:29;;;;;;;1.80;1.27;;;15.00;52.40;;;;;;5012382;28;20452;-70
2022/11/10 02:29:56;;;;;;;1.80;1.20;;;14.90;53.10;;;;;;5012351;28;20439;-70
2022/11/10 02:32:21;;;;;;;1.90;1.30;;;15.00;53.20;;;;;;5011734;28;20453;-70
2022/11/10 02:34:47;;;;;;;1.87;1.30;;;15.00;53.20;;;;;;5010370;28;20532;-70
2022/11/10 02:37:13;;;;;;;1.77;1.20;;;15.00;53.20;;;;;;5011127;28;20277;-70
2022/11/10 02:39:39;;;;;;;1.80;1.30;;;15.20;53.30;;;;;;5011485;28;20454;-70
2022/11/10 02:42:09;;;;;;;2.10;1.40;;;15.20;52.90;;;;;;5011901;28;20221;-70
2022/11/10 02:44:38;;;;;;;1.80;1.30;;;15.30;52.40;;;;;;5011043;28;20252;-70
2022/11/10 02:47:04;;;;;;;2.00;1.30;;;15.40;52.20;;;;;;5011698;28;21022;-70
2022/11/10 02:49:29;;;;;;;1.90;1.30;;;15.30;52.10;;;;;;5010458;28;20450;-70
2022/11/10 02:51:55;;;;;;;1.90;1.30;;;15.20;52.60;;;;;;5011452;28;20179;-70
2022/11/10 02:54:21;;;;;;;1.80;1.20;;;15.30;51.90;;;;;;5026394;28;20190;-70
2022/11/10 02:56:46;;;;;;;1.70;1.10;;;15.20;51.90;;;;;;5011945;28;20187;-70
2022/11/10 02:59:12;;;;;;;1.90;1.30;;;15.10;52.00;;;;;;5009786;28;20235;-70
2022/11/10 03:01:37;;;;;;;1.70;1.10;;;15.10;52.40;;;;;;5010747;28;20205;-70
2022/11/10 03:04:04;;;;;;;2.00;1.30;;;15.10;51.90;;;;;;5012247;28;20641;-70
2022/11/10 03:06:30;;;;;;;1.80;1.17;;;15.20;50.80;;;;;;5011428;28;20298;-70
2022/11/10 03:08:56;;;;;;;1.83;1.30;;;15.10;50.80;;;;;;5011685;28;20496;-70
2022/11/10 03:11:22;;;;;;;1.80;1.20;;;14.90;51.80;;;;;;5009882;28;20441;-70
2022/11/10 03:13:47;;;;;;;2.10;1.37;;;16.10;53.40;;;;;;5010462;28;20190;-70
2022/11/10 03:16:13;;;;;;;1.80;1.30;;;14.90;51.40;;;;;;5011542;28;20173;-70
2022/11/10 03:18:38;;;;;;;1.70;1.10;;;15.40;51.40;;;;;;5010639;28;20290;-71
2022/11/10 03:21:04;;;;;;;1.90;1.30;;;15.10;50.20;;;;;;5007910;28;20197;-70
2022/11/10 03:23:31;;;;;;;1.80;1.20;;;14.90;50.00;;;;;;5011290;28;20184;-70
2022/11/10 03:25:57;;;;;;;1.80;1.20;;;14.80;50.50;;;;;;5009847;28;20184;-70
2022/11/10 03:28:22;;;;;;;1.80;1.20;;;14.70;51.20;;;;;;5011439;28;20456;-70
2022/11/10 03:30:48;;;;;;;1.90;1.30;;;14.80;50.70;;;;;;5011586;28;20205;-70
2022/11/10 03:33:13;;;;;;;1.87;1.23;;;14.80;50.20;;;;;;5011589;28;20185;-70
2022/11/10 03:35:39;;;;;;;1.80;1.20;;;14.70;51.00;;;;;;5011383;28;20193;-70
2022/11/10 03:38:05;;;;;;;1.70;1.10;;;14.60;51.30;;;;;;5008097;28;20209;-70
2022/11/10 03:40:30;;;;;;;1.80;1.20;;;14.70;51.20;;;;;;5011167;28;20184;-70
2022/11/10 03:42:56;;;;;;;1.80;1.20;;;14.80;50.80;;;;;;5010962;28;20200;-70
2022/11/10 03:45:21;;;;;;;2.10;1.40;;;14.80;50.40;;;;;;5011890;28;20204;-70
2022/11/10 03:47:48;;;;;;;1.90;1.30;;;14.80;50.50;;;;;;5009336;28;20201;-70
2022/11/10 03:50:14;;;;;;;1.80;1.20;;;14.70;50.70;;;;;;5010386;28;20188;-70
2022/11/10 03:52:42;;;;;;;1.77;1.20;;;14.60;51.20;;;;;;5010675;28;20428;-70
2022/11/10 03:55:11;;;;;;;1.80;1.20;;;14.60;50.80;;;;;;5010495;28;20943;-70
2022/11/10 03:57:36;;;;;;;2.00;1.40;;;14.40;51.80;;;;;;5008534;28;20456;-70
2022/11/10 04:00:04;;;;;;;1.70;1.10;;;14.40;51.60;;;;;;5009410;28;20447;-70
2022/11/10 04:02:29;;;;;;;1.70;1.10;;;14.40;51.10;;;;;;5004179;28;20200;-70
2022/11/10 04:10:23;;;;;;;1.80;1.30;;;14.30;50.20;;;;;;5010110;28;20523;-70
2022/11/10 04:15:42;;;;;;;1.80;1.20;;;14.30;50.90;;;;;;5008585;28;20252;-70
2022/11/10 04:18:25;;;;;;;1.80;1.20;;;14.40;50.60;;;;;;5010446;28;20456;-70
2022/11/10 04:20:53;;;;;;;1.80;1.27;;;14.20;50.60;;;;;;5005625;28;20456;-70
2022/11/10 04:23:26;;;;;;;1.80;1.20;;;14.30;50.80;;;;;;5010528;28;20506;-70
2022/11/10 04:28:57;;;;;;;1.90;1.30;;;14.20;51.50;;;;;;5005622;28;20812;-70
2022/11/10 04:31:24;;;;;;;1.83;1.23;;;14.20;50.60;;;;;;5010239;28;20436;-70
2022/11/10 04:33:50;;;;;;;1.80;1.20;;;14.10;50.00;;;;;;5011059;28;20416;-70
2022/11/10 04:36:18;;;;;;;1.80;1.20;;;14.00;50.00;;;;;;5010635;28;20436;-70
2022/11/10 04:38:44;;;;;;;1.80;1.30;;;14.00;50.50;;;;;;5009652;28;20495;-70
2022/11/10 04:41:10;;;;;;;1.80;1.30;;;14.60;50.00;;;;;;5010466;28;20567;-70
2022/11/10 04:43:36;;;;;;;1.80;1.27;;;14.10;49.60;;;;;;5009933;28;20177;-70
2022/11/10 04:46:03;;;;;;;1.90;1.30;;;14.20;50.40;;;;;;5009672;28;20823;-70
2022/11/10 04:48:29;;;;;;;1.70;1.10;;;13.80;50.50;;;;;;5001368;28;20503;-70
2022/11/10 04:50:56;;;;;;;2.20;1.40;;;13.90;50.70;;;;;;5009300;28;20432;-70
2022/11/10 04:53:24;;;;;;;1.80;1.30;;;13.70;50.90;;;;;;5010379;28;20511;-70
2022/11/10 04:55:50;;;;;;;1.80;1.30;;;13.80;50.00;;;;;;5009721;28;20428;-70
2022/11/10 04:58:15;;;;;;;1.80;1.20;;;13.70;49.90;;;;;;5009336;28;20452;-70
2022/11/10 05:00:41;;;;;;;1.80;1.23;;;13.70;50.00;;;;;;5009594;28;20231;-70
2022/11/10 05:03:09;;;;;;;1.70;1.10;;;13.80;49.30;;;;;;5009677;28;20213;-70
2022/11/10 05:05:35;;;;;;;1.80;1.30;;;13.80;49.10;;;;;;5010153;28;20434;-70
2022/11/10 05:08:01;;;;;;;1.70;1.10;;;13.80;49.40;;;;;;5010229;28;20468;-70
2022/11/10 05:10:27;;;;;;;1.80;1.30;;;13.60;49.40;;;;;;5008747;28;20186;-70
2022/11/10 05:12:57;;;;;;;1.80;1.20;;;13.70;49.40;;;;;;5012234;28;20430;-70
2022/11/10 05:15:24;;;;;;;1.70;1.20;;;13.50;49.50;;;;;;5013913;28;20430;-70
2022/11/10 05:17:51;;;;;;;1.80;1.40;;;13.60;49.80;;;;;;5013007;28;20530;-70
2022/11/10 05:20:17;;;;;;;1.70;1.20;;;13.90;49.90;;;;;;5013474;28;20459;-70
2022/11/10 05:22:45;;;;;;;1.80;1.30;;;13.50;49.40;;;;;;5011983;28;20468;-70
2022/11/10 05:25:10;;;;;;;1.70;1.10;;;13.50;49.30;;;;;;5013196;28;20440;-70
2022/11/10 05:27:36;;;;;;;1.80;1.30;;;13.50;49.10;;;;;;5013724;28;20448;-70
2022/11/10 05:30:02;;;;;;;1.80;1.30;;;13.80;49.00;;;;;;5011240;28;20181;-70
2022/11/10 05:32:28;;;;;;;1.90;1.30;;;13.30;48.60;;;;;;5011520;28;20242;-70
2022/11/10 05:34:53;;;;;;;1.80;1.30;;;13.30;48.90;;;;;;5013198;28;20431;-70
2022/11/10 05:37:19;;;;;;;1.70;1.10;;;13.10;49.20;;;;;;5012820;28;20236;-70
2022/11/10 05:39:44;;;;;;;1.80;1.23;;;13.20;49.30;;;;;;5014044;28;20174;-70
2022/11/10 05:42:10;;;;;;;1.70;1.10;;;13.10;48.90;;;;;;5010612;28;20327;-70
2022/11/10 05:44:36;;;;;;;1.87;1.23;;;13.20;49.50;;;;;;5012889;28;20182;-70
2022/11/10 05:47:01;;;;;;;2.80;1.83;;;13.10;48.40;;;;;;5012288;28;20200;-70
2022/11/10 05:49:27;;;;;;;1.80;1.27;;;13.10;49.20;;;;;;5012556;28;20178;-70
2022/11/10 05:51:53;;;;;;;1.80;1.30;;;13.00;48.40;;;;;;5011325;28;20672;-70
2022/11/10 05:54:18;;;;;;;1.90;1.40;;;13.30;48.20;;;;;;5012463;28;20204;-70
2022/11/10 05:56:44;;;;;;;1.73;1.20;;;13.00;48.50;;;;;;5012640;28;20192;-70
2022/11/10 05:59:10;;;;;;;1.98;1.27;;;13.00;48.50;;;;;;5012123;28;20281;-71
2022/11/10 06:01:35;;;;;;;1.80;1.20;;;13.00;48.70;;;;;;5012471;28;20283;-70
2022/11/10 06:04:01;;;;;;;1.80;1.30;;;13.10;49.00;;;;;;5011881;28;20190;-70
2022/11/10 06:06:27;;;;;;;1.70;1.20;;;13.30;48.40;;;;;;5012825;28;20238;-70
2022/11/10 06:08:52;;;;;;;1.70;1.10;;;13.20;48.50;;;;;;5011913;28;20228;-70
2022/11/10 06:11:19;;;;;;;1.70;1.13;;;12.90;48.40;;;;;;5011812;28;20181;-70
2022/11/10 06:13:44;;;;;;;5.07;1.70;;;13.00;49.80;;;;;;5011090;28;20185;-70
2022/11/10 06:16:11;;;;;;;2.53;1.60;;;12.80;49.20;;;;;;5012352;28;21087;-70
2022/11/10 06:18:36;;;;;;;1.70;1.10;;;12.80;49.10;;;;;;5012739;28;20209;-70
2022/11/10 06:21:02;;;;;;;1.80;1.20;;;12.60;48.70;;;;;;5012604;28;20259;-70
2022/11/10 06:23:29;;;;;;;2.20;1.67;;;12.60;48.90;;;;;;5008461;28;20174;-70
2022/11/10 06:25:54;;;;;;;1.80;1.20;;;12.70;48.80;;;;;;5012188;28;20649;-71
2022/11/10 06:28:20;;;;;;;1.70;1.20;;;12.60;49.10;;;;;;5012626;28;20264;-70
2022/11/10 06:30:45;;;;;;;1.80;1.37;;;12.50;49.60;;;;;;5011692;28;20231;-71
2022/11/10 06:33:11;;;;;;;1.80;1.30;;;12.80;48.80;;;;;;5012302;28;20177;-70
2022/11/10 06:35:36;;;;;;;1.70;1.10;;;12.80;48.40;;;;;;5014174;28;20554;-73
2022/11/10 06:38:09;;;;;;;1.80;1.20;;;12.80;48.50;;;;;;5020181;28;20205;-79
2022/11/10 06:40:35;;;;;;;1.70;1.10;;;12.70;48.60;;;;;;5027826;28;20192;-79
2022/11/10 06:43:01;;;;;;;1.70;1.10;;;12.60;48.80;;;;;;5034965;28;20212;-78
2022/11/10 06:45:27;;;;;;;1.80;1.20;;;12.50;49.60;;;;;;5034304;28;20171;-78
2022/11/10 06:48:15;;;;;;;1.77;1.20;;;12.40;49.60;;;;;;5034278;28;20217;-79
2022/11/10 06:50:40;;;;;;;1.90;1.30;;;12.30;49.20;;;;;;5034447;28;20424;-78
2022/11/10 06:53:06;;;;;;;1.90;1.33;;;12.70;50.00;;;;;;5025036;28;20510;-75
2022/11/10 06:55:32;;;;;;;2.37;1.60;;;12.20;50.00;;;;;;5009233;28;20197;-75
2022/11/10 06:57:57;;;;;;;1.70;1.20;;;12.30;49.70;;;;;;5010689;28;20216;-75
2022/11/10 07:00:24;;;;;;;1.67;1.10;;;12.20;49.10;;;;;;5012349;28;20691;-75
2022/11/10 07:02:59;;;;;;;2.07;1.37;;;12.30;49.10;;;;;;5011628;28;20232;-75
2022/11/10 07:05:25;;;;;;;1.70;1.20;;;12.40;49.50;;;;;;5011282;28;20423;-75
2022/11/10 07:07:51;;;;;;;1.80;1.20;;;12.30;50.50;;;;;;5011033;28;20476;-75
2022/11/10 07:10:16;;;;;;;1.70;1.20;;;11.90;52.90;;;;;;5011209;28;20184;-75
2022/11/10 07:12:42;;;;;;;1.80;1.30;;;11.70;55.40;;;;;;5020528;28;20267;-74
2022/11/10 07:15:08;;;;;;;1.80;1.20;;;11.80;56.30;;;;;;5010086;28;20189;-74
2022/11/10 07:17:39;;;;;;;1.90;1.30;;;11.90;54.50;;;;;;5011484;28;20213;-74
2022/11/10 07:20:06;;;;;;;4.23;1.97;;;12.10;53.60;;;;;;5009593;28;20939;-75
2022/11/10 07:22:31;;;;;;;2.27;1.80;;;12.30;52.80;;;;;;5011329;28;20460;-75
2022/11/10 07:24:57;;;;;;;1.70;1.10;;;12.60;52.20;;;;;;5011980;28;20421;-75
2022/11/10 07:27:22;;;;;;;1.80;1.20;;;12.60;51.50;;;;;;5008230;28;20209;-74
2022/11/10 07:29:48;;;;;;;1.70;1.10;;;13.00;51.40;;;;;;5009145;28;20215;-75
2022/11/10 07:32:13;;;;;;;2.10;1.30;;;12.90;51.30;;;;;;5011876;28;20185;-74
2022/11/10 07:34:39;;;;;;;1.80;1.27;;;13.10;50.60;;;;;;5009254;28;20200;-74
2022/11/10 07:37:05;;;;;;;1.70;1.10;;;13.20;50.20;;;;;;5008925;28;20238;-75
2022/11/10 07:39:30;;;;;;;1.80;1.20;;;13.10;50.70;;;;;;5007477;28;20193;-75
2022/11/10 07:41:56;;;;;;;2.10;1.47;;;13.40;50.90;;;;;;5009037;28;20193;-75
2022/11/10 07:44:23;;;;;;;1.80;1.20;;;13.20;50.80;;;;;;5019779;28;20176;-75
2022/11/10 07:46:48;;;;;;;2.67;1.80;;;13.50;51.00;;;;;;5011866;28;20894;-75
2022/11/10 07:49:14;;;;;;;1.77;1.13;;;13.10;51.50;;;;;;5011954;28;20444;-75
2022/11/10 07:51:41;;;;;;;2.00;1.30;;;13.00;51.50;;;;;;5011042;28;20204;-75
2022/11/10 07:54:07;;;;;;;2.13;1.43;;;12.90;52.60;;;;;;5019755;28;20188;-74
2022/11/10 07:56:33;;;;;;;1.97;1.40;;;13.00;52.30;;;;;;5011723;28;20416;-74
2022/11/10 07:58:58;;;;;;;1.93;1.43;;;13.00;51.90;;;;;;5011594;28;20197;-74
2022/11/10 08:01:24;;;;;;;1.70;1.20;;;13.00;51.70;;;;;;5011443;28;20287;-74
2022/11/10 08:03:49;;;;;;;2.00;1.40;;;12.90;52.40;;;;;;5009610;28;20268;-74
2022/11/10 08:06:15;;;;;;;2.13;1.40;;;13.40;52.60;;;;;;5021976;28;20190;-74
2022/11/10 08:08:41;;;;;;;2.00;1.30;;;13.10;52.40;;;;;;5016828;28;20307;-74
2022/11/10 08:11:06;;;;;;;2.20;1.40;;;13.20;52.20;;;;;;5019525;28;20181;-74
2022/11/10 08:13:32;;;;;;;1.80;1.23;;;13.30;52.20;;;;;;5009080;28;20189;-75
2022/11/10 08:15:58;;;;;;;3.23;2.07;;;13.40;51.70;;;;;;5008354;28;20192;-75
2022/11/10 08:18:24;;;;;;;1.90;1.30;;;13.90;51.40;;;;;;5007588;28;20209;-74
2022/11/10 08:20:50;;;;;;;2.30;1.60;;;13.60;51.90;;;;;;5010531;28;20436;-75
2022/11/10 08:23:16;;;;;;;1.90;1.30;;;13.80;51.50;;;;;;5011572;28;20478;-73
2022/11/10 08:25:43;;;;;;;2.47;1.83;;;14.10;50.30;;;;;;5016010;28;20208;-74
2022/11/10 08:28:09;;;;;;;1.93;1.27;;;14.20;50.10;;;;;;5010630;28;21018;-74
2022/11/10 08:30:37;;;;;;;2.30;1.30;;;14.00;51.20;;;;;;5023888;28;20446;-75
2022/11/10 08:33:04;;;;;;;1.90;1.57;;;14.50;51.00;;;;;;5031267;28;20410;-75
2022/11/10 08:35:33;;;;;;;1.80;1.20;;;14.20;51.10;;;;;;5025465;28;20435;-75
2022/11/10 08:38:11;;;;;;;1.90;1.33;;;14.30;51.80;;;;;;5010797;28;20538;-75
2022/11/10 08:40:38;;;;;;;2.00;1.47;;;14.10;52.40;;;;;;5010589;28;20458;-74
2022/11/10 08:43:07;;;;;;;2.00;1.30;;;14.20;52.00;;;;;;5011193;28;20423;-74
2022/11/10 08:45:37;;;;;;;2.50;1.73;;;14.10;52.40;;;;;;5011303;28;20404;-74
2022/11/10 08:48:06;;;;;;;1.87;1.30;;;14.30;53.40;;;;;;5010804;28;20460;-76
2022/11/10 08:50:32;;;;;;;2.00;1.40;;;13.80;53.80;;;;;;5014013;28;20421;-76
2022/11/10 08:53:08;;;;;;;2.77;1.50;;;13.70;55.30;;;;;;5013758;28;20411;-76
2022/11/10 08:55:33;;;;;;;2.97;1.97;;;13.70;55.00;;;;;;5014030;28;20436;-76
2022/11/10 08:58:01;;;;;;;1.90;1.30;;;13.70;54.60;;;;;;5012917;28;20462;-76
2022/11/10 09:00:27;;;;;;;1.80;1.20;;;13.80;55.70;;;;;;5018884;28;20186;-75
2022/11/10 09:03:02;;;;;;;1.90;1.37;;;14.10;54.30;;;;;;5014593;28;20469;-75
2022/11/10 09:05:27;;;;;;;2.00;1.37;;;14.10;54.20;;;;;;5008586;28;20437;-75
2022/11/10 09:07:53;;;;;;;2.33;1.30;;;14.40;53.20;;;;;;5014475;28;20833;-76
2022/11/10 09:10:19;;;;;;;1.90;1.20;;;14.60;51.00;;;;;;5014861;28;20169;-75
2022/11/10 09:12:44;;;;;;;1.90;1.20;;;14.70;52.20;;;;;;5014214;28;20182;-75
2022/11/10 09:15:10;;;;;;;2.03;1.43;;;14.90;51.40;;;;;;5012291;28;20198;-74
2022/11/10 09:17:38;;;;;;;2.80;1.70;;;15.00;51.00;;;;;;5012854;28;20211;-75
2022/11/10 09:20:05;;;;;;;1.87;1.30;;;15.20;50.50;;;;;;5010971;28;20796;-75
2022/11/10 09:22:31;;;;;;;1.80;1.10;;;15.30;49.10;;;;;;5012902;28;20494;-75
2022/11/10 09:24:56;;;;;;;2.90;1.50;;;15.00;50.50;;;;;;5013550;28;20453;-75
2022/11/10 09:27:22;;;;;;;2.00;1.33;;;15.00;51.30;;;;;;5013957;28;20214;-76
2022/11/10 09:29:48;;;;;;;1.90;1.17;;;15.00;51.00;;;;;;5014123;28;20221;-75
2022/11/10 09:32:13;;;;;;;5.70;1.43;;;15.00;50.90;;;;;;5013545;28;20639;-74
2022/11/10 09:34:39;;;;;;;2.00;1.30;;;14.90;51.70;;;;;;5012470;28;20189;-75
2022/11/10 09:37:04;;;;;;;2.20;1.43;;;15.20;50.50;;;;;;5011313;28;20294;-76
2022/11/10 09:39:30;;;;;;;2.00;1.20;;;15.10;49.80;;;;;;5024344;28;20268;-75
2022/11/10 09:41:55;;;;;;;2.00;1.10;;;15.60;50.50;;;;;;5016826;28;20292;-75
2022/11/10 09:44:34;;;;;;;2.10;1.20;;;15.60;48.60;;;;;;5013870;28;20254;-75
2022/11/10 09:47:18;;;;;;;2.17;1.30;;;15.90;47.10;;;;;;5027850;28;20212;-76
2022/11/10 09:49:50;;;;;;;2.20;1.30;;;15.50;47.10;;;;;;5010852;28;20438;-76
2022/11/10 09:52:19;;;;;;;2.43;1.33;;;15.40;47.50;;;;;;5011028;28;20446;-75
2022/11/10 09:54:53;;;;;;;2.30;1.17;;;15.80;42.50;;;;;;5013037;28;20523;-74
2022/11/10 09:57:23;;;;;;;3.40;1.60;;;15.60;43.40;;;;;;5012893;28;20460;-74
2022/11/10 09:59:49;;;;;;;2.43;1.20;;;15.30;45.80;;;;;;5013792;28;20458;-74
2022/11/10 10:02:27;;;;;;;2.40;1.10;;;16.00;45.10;;;;;;5012017;28;20455;-74
2022/11/10 10:05:17;;;;;;;2.53;1.20;;;16.10;43.20;;;;;;5012252;28;21057;-74
2022/11/10 10:07:58;;;;;;;2.63;1.30;;;15.90;43.90;;;;;;5013244;28;20450;-75
2022/11/10 10:10:41;;;;;;;2.70;1.20;;;15.70;43.00;;;;;;5011355;28;20434;-74
2022/11/10 10:13:25;;;;;;;3.20;1.47;;;15.70;40.90;;;;;;5013197;28;20423;-75
2022/11/10 10:16:26;;;;;;;3.00;1.40;;;15.60;42.20;;;;;;5012231;28;20503;-74
2022/11/10 10:19:25;;;;;;;3.10;1.30;;;15.70;40.90;;;;;;4994482;28;20424;-74
2022/11/10 10:22:02;;;;;;;3.53;1.40;;;14.80;43.80;;;;;;5009294;28;20483;-74
2022/11/10 10:24:31;;;;;;;3.13;1.30;;;15.10;42.50;;;;;;4999047;28;20495;-74
2022/11/10 10:26:59;;;;;;;3.00;1.30;;;15.50;43.00;;;;;;5010631;28;20443;-74
2022/11/10 10:29:31;;;;;;;3.20;1.60;;;15.40;43.80;;;;;;5010970;28;20416;-74
2022/11/10 10:31:59;;;;;;;3.70;1.40;;;16.10;41.10;;;;;;5008374;28;20819;-76
2022/11/10 10:34:30;;;;;;;3.00;1.30;;;15.90;40.10;;;;;;5009356;28;20440;-75
2022/11/10 10:36:56;;;;;;;3.13;1.40;;;15.20;42.20;;;;;;5018190;28;20480;-75
2022/11/10 10:39:29;;;;;;;5.53;1.80;;;15.60;42.20;;;;;;5029801;28;20938;-75
2022/11/10 10:41:55;;;;;;;3.10;1.40;;;15.50;42.60;;;;;;4992700;28;20468;-75
2022/11/10 10:44:21;;;;;;;3.00;1.20;;;16.00;43.10;;;;;;5014657;28;20818;-75
2022/11/10 10:46:58;;;;;;;3.00;1.20;;;16.60;39.80;;;;;;4999945;28;20434;-76
2022/11/10 10:49:25;;;;;;;3.60;1.60;;;17.30;36.70;;;;;;5000240;28;20196;-76
2022/11/10 10:52:11;;;;;;;3.10;1.30;;;17.70;38.60;;;;;;5009625;28;20435;-75
2022/11/10 10:54:38;;;;;;;3.30;1.43;;;17.40;35.50;;;;;;5007300;28;20818;-76
2022/11/10 10:57:27;;;;;;;3.10;1.40;;;16.80;35.40;;;;;;5011591;28;20456;-75
2022/11/10 11:00:29;;;;;;;3.00;1.20;;;15.70;37.70;;;;;;5010947;28;20799;-75
2022/11/10 11:03:10;;;;;;;2.93;1.20;;;16.30;38.20;;;;;;5007502;28;20470;-76
2022/11/10 11:05:35;;;;;;;3.00;1.30;;;17.20;38.60;;;;;;5011769;28;20522;-75
2022/11/10 11:08:02;;;;;;;3.00;1.30;;;16.90;37.10;;;;;;5012114;28;20872;-75
2022/11/10 11:10:31;;;;;;;3.00;1.30;;;16.60;38.40;;;;;;4995241;28;20194;-75
2022/11/10 11:13:22;;;;;;;3.10;1.30;;;17.30;38.50;;;;;;5013319;28;20437;-75
2022/11/10 11:16:01;;;;;;;2.97;1.30;;;17.40;37.40;;;;;;4998862;28;20448;-76
2022/11/10 11:18:29;;;;;;;2.87;1.17;;;17.50;37.10;;;;;;5007819;28;20461;-75
2022/11/10 11:21:01;;;;;;;2.90;1.27;;;17.40;35.60;;;;;;5014268;28;20415;-74
2022/11/10 11:23:45;;;;;;;2.80;1.20;;;17.40;36.20;;;;;;5011174;28;20849;-74
2022/11/10 11:26:29;;;;;;;3.40;1.40;;;18.10;35.40;;;;;;5011269;28;20435;-75
2022/11/10 11:29:19;;;;;;;3.40;1.67;;;18.70;32.00;;;;;;5011882;28;20424;-75
2022/11/10 11:31:57;;;;;;;2.93;1.30;;;18.50;33.40;;;;;;5010806;28;20440;-75
2022/11/10 11:34:57;;;;;;;5.60;2.00;;;18.40;32.10;;;;;;5009607;28;20456;-75
2022/11/10 11:37:58;;;;;;;3.23;1.40;;;18.00;33.00;;;;;;5011831;28;20442;-75
2022/11/10 11:40:31;;;;;;;3.30;1.47;;;18.60;32.60;;;;;;5010004;28;20471;-76
2022/11/10 11:43:11;;;;;;;3.10;1.20;;;18.60;32.90;;;;;;5010994;28;20829;-75
2022/11/10 11:45:55;;;;;;;3.17;1.30;;;18.30;32.50;;;;;;5011281;28;20468;-76
2022/11/10 11:48:27;;;;;;;3.20;1.20;;;18.20;33.40;;;;;;5011387;28;20445;-75
2022/11/10 11:50:58;;;;;;;3.10;1.27;;;18.70;31.50;;;;;;5012005;28;20436;-76
2022/11/10 11:53:55;;;;;;;3.20;1.30;;;18.80;31.80;;;;;;5011369;28;20902;-75
2022/11/10 11:56:23;;;;;;;3.60;1.43;;;19.00;30.90;;;;;;5011661;28;20423;-75
2022/11/10 11:59:17;;;;;;;3.40;1.40;;;18.10;31.00;;;;;;5012044;28;20428;-76
2022/11/10 12:02:30;;;;;;;5.20;1.40;;;18.40;30.80;;;;;;5007981;28;20459;-76
2022/11/10 12:05:09;;;;;;;3.30;1.30;;;18.40;32.20;;;;;;4992092;28;21149;-75
2022/11/10 12:07:41;;;;;;;3.30;1.20;;;18.80;31.20;;;;;;5008447;28;20462;-76
2022/11/10 12:10:07;;;;;;;3.27;1.20;;;18.90;29.40;;;;;;5008415;28;20415;-75
2022/11/10 12:12:35;;;;;;;3.30;1.30;;;19.30;29.40;;;;;;5011394;28;20914;-75
2022/11/10 12:15:36;;;;;;;3.43;1.33;;;19.30;28.90;;;;;;5011262;28;20176;-76
2022/11/10 12:18:17;;;;;;;3.50;1.37;;;19.10;29.70;;;;;;5006305;28;20474;-77
2022/11/10 12:21:19;;;;;;;3.50;1.33;;;18.90;28.90;;;;;;5006214;28;20442;-76
2022/11/10 12:23:45;;;;;;;3.90;1.40;;;18.40;29.80;;;;;;5005999;28;20447;-76
2022/11/10 12:26:25;;;;;;;3.30;1.17;;;18.30;30.20;;;;;;5018920;28;20438;-76
2022/11/10 12:29:08;;;;;;;5.40;1.67;;;18.40;30.60;;;;;;5009655;28;20288;-76
2022/11/10 12:31:37;;;;;;;3.40;1.20;;;19.20;28.50;;;;;;5021173;28;21016;-76
2022/11/10 12:34:29;;;;;;;3.40;1.20;;;18.10;30.20;;;;;;5019555;28;21015;-76
2022/11/10 12:37:00;;;;;;;3.60;1.40;;;18.20;32.80;;;;;;5015533;28;20502;-76
2022/11/10 12:39:49;;;;;;;3.43;1.27;;;18.10;30.80;;;;;;5015920;28;20452;-76
2022/11/10 12:42:20;;;;;;;3.40;1.20;;;18.10;31.40;;;;;;5014589;28;20981;-76
2022/11/10 12:44:58;;;;;;;3.60;1.40;;;18.30;30.80;;;;;;4995676;28;20468;-76
2022/11/10 12:47:32;;;;;;;3.50;1.23;;;17.50;31.30;;;;;;5014636;28;20558;-76
2022/11/10 12:50:06;;;;;;;3.53;1.20;;;17.10;33.40;;;;;;5016981;28;20480;-76
2022/11/10 12:52:43;;;;;;;7.97;1.77;;;17.00;31.70;;;;;;5013298;28;20530;-76
2022/11/10 12:55:13;;;;;;;3.60;1.23;;;17.00;33.00;;;;;;5026585;28;20936;-76
2022/11/10 12:57:41;;;;;;;3.60;1.20;;;17.70;32.60;;;;;;5021758;28;20862;-76
2022/11/10 13:00:25;;;;;;;3.77;1.50;;;18.20;31.60;;;;;;5016057;28;20491;-76
2022/11/10 13:02:54;;;;;;;3.60;1.20;;;17.90;31.20;;;;;;5016465;28;21050;-76
2022/11/10 13:05:40;;;;;;;3.53;1.20;;;18.60;29.80;;;;;;5017141;28;20427;-76
2022/11/10 13:08:27;;;;;;;3.70;1.40;;;18.50;29.60;;;;;;5022797;28;20453;-76
2022/11/10 13:10:55;;;;;;;3.73;1.47;;;18.20;30.60;;;;;;5019120;28;20958;-76
2022/11/10 13:13:22;;;;;;;3.40;1.20;;;19.10;32.00;;;;;;5042989;28;20438;-76
2022/11/10 13:15:51;;;;;;;3.30;1.20;;;19.20;30.30;;;;;;5020912;28;20472;-76